»·PEaware :: SKW5628 KSLC-KDEN

SKW5628 :: KSLC-KDEN

FLIGHT INFORMATION

Flight Status: Arrived
Operator:
SkyWest Airlines
More flights by this operator :: More flights under this callsign
Pilot: James C. (37539)
Aircraft: EMBRAER EMB-170/175
(E170)
More flights by this aircraft type
Origin: KSLC Salt Lake City Intl
United States
Destination: KDEN Denver Intl
United States
More flights between these airports :: More routes between these airports
Route: RUGGD2 PERTY KAMPR LONGZ2
File this flight plan on PilotEdge
Remarks: RMK / SIMBRIEF
Altitude:
(Current/Filed)
31,000ft
Speed:
(Current/Filed)
399kts
Departed: 25-Feb-22 10:40 AM
Arrived: 25-Feb-22 11:42 AM
Distance/Time
Traveled:
339nm/1:02
Distance/Time
To Go:
Arrived

Flight Plot

Page will automatically refresh every two minutes.

Flight plan parsing failed; only flown route is shown


Map Options




Map Legend


Flown Route
Filed Route
Departure Airport
Arrival Airport
Navaid (VOR, NDB)
Fix

Horizontal Profiles

Position Reports

Time Latitude Longitude Heading Altitude Ground
Speed
25-Feb-22 09:54 40.789917 -111.988047 175 4238ft 0kts
25-Feb-22 09:55 40.789917 -111.988047 175 4238ft 0kts
25-Feb-22 09:56 40.789917 -111.988047 175 4238ft 0kts
25-Feb-22 09:57 40.789917 -111.988047 175 4238ft 0kts
25-Feb-22 09:58 40.789917 -111.988047 175 4238ft 0kts
25-Feb-22 09:59 40.789917 -111.988047 175 4238ft 0kts
25-Feb-22 09:59 40.789917 -111.988047 175 4238ft 0kts
25-Feb-22 10:00 40.789917 -111.988047 175 4238ft 0kts
25-Feb-22 10:01 40.789917 -111.988047 175 4238ft 0kts
25-Feb-22 10:03 40.789917 -111.988047 175 4238ft 0kts
25-Feb-22 10:04 40.789917 -111.988047 175 4238ft 0kts
25-Feb-22 10:04 40.789917 -111.988047 175 4238ft 0kts
25-Feb-22 10:05 40.789917 -111.988047 175 4238ft 0kts
25-Feb-22 10:06 40.789917 -111.988047 175 4238ft 0kts
25-Feb-22 10:07 40.789917 -111.988047 175 4238ft 0kts
25-Feb-22 10:08 40.789917 -111.988047 175 4238ft 0kts
25-Feb-22 10:09 40.789917 -111.988047 175 4238ft 0kts
25-Feb-22 10:10 40.789917 -111.988047 175 4238ft 0kts
25-Feb-22 10:11 40.789917 -111.988047 175 4238ft 0kts
25-Feb-22 10:12 40.789917 -111.988047 175 4238ft 0kts
25-Feb-22 10:13 40.789917 -111.988047 175 4238ft 0kts
25-Feb-22 10:14 40.789917 -111.988047 175 4238ft 0kts
25-Feb-22 10:15 40.789917 -111.988047 175 4238ft 0kts
25-Feb-22 10:16 40.789917 -111.988047 175 4238ft 0kts
25-Feb-22 10:17 40.789917 -111.988047 175 4238ft 0kts
25-Feb-22 10:18 40.789917 -111.988047 175 4238ft 0kts
25-Feb-22 10:19 40.789917 -111.988047 175 4238ft 0kts
25-Feb-22 10:20 40.789917 -111.988047 175 4238ft 0kts
25-Feb-22 10:21 40.790510 -111.988377 95 4238ft 2kts
25-Feb-22 10:22 40.790504 -111.988564 84 4238ft 0kts
25-Feb-22 10:23 40.790504 -111.988564 84 4238ft 0kts
25-Feb-22 10:24 40.790504 -111.988564 84 4238ft 0kts
25-Feb-22 10:25 40.790504 -111.988564 84 4238ft 0kts
25-Feb-22 10:26 40.790549 -111.987901 84 4238ft 10kts
25-Feb-22 10:27 40.790760 -111.986072 33 4238ft 0kts
25-Feb-22 10:28 40.791769 -111.986048 353 4238ft 0kts
25-Feb-22 10:29 40.791879 -111.990201 264 4238ft 17kts
25-Feb-22 10:30 40.791893 -111.995230 347 4238ft 8kts
25-Feb-22 10:31 40.797444 -111.995879 354 4238ft 25kts
25-Feb-22 10:32 40.803985 -111.996643 354 4238ft 21kts
25-Feb-22 10:33 40.807639 -111.997243 294 4238ft 6kts
25-Feb-22 10:34 40.807664 -111.997516 267 4238ft 0kts
25-Feb-22 10:35 40.807664 -111.997516 267 4238ft 0kts
25-Feb-22 10:36 40.807664 -111.997516 267 4238ft 0kts
25-Feb-22 10:37 40.807664 -111.997516 267 4238ft 0kts
25-Feb-22 10:38 40.807664 -111.997518 267 4238ft 0kts
25-Feb-22 10:39 40.803447 -111.998736 174 4238ft 85kts
25-Feb-22 10:40 40.759353 -112.000774 224 5972ft 168kts
25-Feb-22 10:41 40.773154 -112.056098 306 7741ft 206kts
25-Feb-22 10:42 40.815345 -112.125801 325 9370ft 265kts
25-Feb-22 10:43 40.882415 -112.110832 23 10521ft 261kts
25-Feb-22 10:44 40.950026 -112.073902 20 11877ft 270kts
25-Feb-22 10:45 41.018843 -112.033836 19 15012ft 273kts
25-Feb-22 10:46 41.072997 -111.955056 66 16367ft 349kts
25-Feb-22 10:47 41.113762 -111.829064 62 18127ft 381kts
25-Feb-22 10:48 41.100044 -111.695580 136 20298ft 399kts
25-Feb-22 10:49 41.023977 -111.583517 132 22314ft 418kts
25-Feb-22 10:50 40.948376 -111.462604 133 24163ft 434kts
25-Feb-22 10:51 40.894393 -111.319710 99 25850ft 457kts
25-Feb-22 10:52 40.877383 -111.151751 98 27615ft 462kts
25-Feb-22 10:53 40.859105 -110.984068 99 29474ft 459kts
25-Feb-22 10:54 40.839519 -110.817646 100 31061ft 458kts
25-Feb-22 10:55 40.819311 -110.651574 100 31286ft 448kts
25-Feb-22 10:56 40.799583 -110.492316 101 31280ft 434kts
25-Feb-22 10:57 40.779878 -110.335689 101 31298ft 434kts
25-Feb-22 10:58 40.759808 -110.178082 101 31307ft 436kts
25-Feb-22 10:59 40.740423 -110.020072 97 31317ft 437kts
25-Feb-22 11:00 40.729665 -109.859589 96 31327ft 441kts
25-Feb-22 11:01 40.719205 -109.698189 97 31337ft 441kts
25-Feb-22 11:02 40.708261 -109.537751 97 31343ft 441kts
25-Feb-22 11:03 40.696918 -109.376813 97 31347ft 440kts
25-Feb-22 11:04 40.685318 -109.216105 97 31345ft 440kts
25-Feb-22 11:05 40.673473 -109.055437 98 31342ft 441kts
25-Feb-22 11:06 40.662961 -108.894719 97 31338ft 442kts
25-Feb-22 11:07 40.652549 -108.733031 97 31328ft 444kts
25-Feb-22 11:08 40.641795 -108.570647 98 31307ft 445kts
25-Feb-22 11:09 40.630752 -108.407878 98 31301ft 447kts
25-Feb-22 11:10 40.619442 -108.244787 98 31294ft 448kts
25-Feb-22 11:11 40.607845 -108.081027 98 31283ft 450kts
25-Feb-22 11:12 40.596014 -107.917294 99 31282ft 453kts
25-Feb-22 11:13 40.583877 -107.752507 99 31282ft 451kts
25-Feb-22 11:14 40.571583 -107.588181 99 31282ft 451kts
25-Feb-22 11:15 40.559138 -107.423936 99 31282ft 450kts
25-Feb-22 11:16 40.546473 -107.259926 99 31282ft 451kts
25-Feb-22 11:17 40.533624 -107.096597 99 31282ft 450kts
25-Feb-22 11:18 40.520498 -106.932831 99 31263ft 451kts
25-Feb-22 11:19 40.507042 -106.768288 100 30838ft 468kts
25-Feb-22 11:20 40.492206 -106.590789 100 28106ft 491kts
25-Feb-22 11:21 40.476989 -106.414462 101 27235ft 487kts
25-Feb-22 11:22 40.460866 -106.236835 101 27216ft 491kts
25-Feb-22 11:23 40.444854 -106.058642 101 27211ft 494kts
25-Feb-22 11:24 40.427955 -105.879358 105 25619ft 491kts
25-Feb-22 11:25 40.401470 -105.709403 108 23183ft 460kts
25-Feb-22 11:26 40.375523 -105.550242 107 20853ft 432kts
25-Feb-22 11:27 40.351330 -105.401198 106 18673ft 403kts
25-Feb-22 11:28 40.331455 -105.264133 103 17344ft 362kts
25-Feb-22 11:29 40.314494 -105.138528 103 15766ft 341kts
25-Feb-22 11:30 40.299081 -105.025181 103 14092ft 288kts
25-Feb-22 11:31 40.285300 -104.925339 102 12913ft 272kts
25-Feb-22 11:32 40.271813 -104.828675 101 11913ft 265kts
25-Feb-22 11:33 40.250831 -104.740296 121 10889ft 259kts
25-Feb-22 11:34 40.200055 -104.685576 170 10170ft 240kts
25-Feb-22 11:35 40.132047 -104.692825 186 9770ft 240kts
25-Feb-22 11:36 40.067786 -104.694113 180 8737ft 216kts
25-Feb-22 11:37 40.011590 -104.694747 180 7661ft 196kts
25-Feb-22 11:38 39.960384 -104.695327 180 6720ft 167kts
25-Feb-22 11:39 39.917332 -104.695822 180 5888ft 148kts
25-Feb-22 11:40 39.879215 -104.696251 180 5442ft 78kts
25-Feb-22 11:41 39.866175 -104.694840 152 5442ft 31kts
25-Feb-22 11:42 39.860397 -104.690286 113 5442ft 13kts
25-Feb-22 11:43 39.860252 -104.684202 90 5442ft 15kts
25-Feb-22 11:44 39.860595 -104.678715 85 5442ft 10kts
25-Feb-22 11:45 39.860539 -104.676044 89 5442ft 8kts
25-Feb-22 11:46 39.860525 -104.671694 87 5442ft 15kts
25-Feb-22 11:47 39.860206 -104.667343 134 5442ft 8kts
25-Feb-22 11:48 39.859343 -104.667155 180 5442ft 1kts
25-Feb-22 11:49 39.859326 -104.667155 180 5442ft 0kts
25-Feb-22 11:50 39.859326 -104.667155 180 5442ft 0kts
25-Feb-22 11:51 39.859326 -104.667155 180 5442ft 0kts
25-Feb-22 11:52 39.859326 -104.667155 180 5442ft 0kts

Navigation Log

Ident Type
Flight plan parsing failed, navigation log unavailable